sensor_id;sensor_type;location;lat;lon;timestamp;P1;durP1;ratioP1;P2;durP2;ratioP2
75220;SDS011;63802;53.232;6.570;2022-10-22T00:00:11;18.17;;;7.95;;
75220;SDS011;63802;53.232;6.570;2022-10-22T00:02:39;16.27;;;7.60;;
75220;SDS011;63802;53.232;6.570;2022-10-22T00:05:05;16.20;;;7.88;;
75220;SDS011;63802;53.232;6.570;2022-10-22T00:07:32;17.38;;;7.38;;
75220;SDS011;63802;53.232;6.570;2022-10-22T00:09:57;14.82;;;6.65;;
75220;SDS011;63802;53.232;6.570;2022-10-22T00:12:23;15.52;;;8.00;;
75220;SDS011;63802;53.232;6.570;2022-10-22T00:14:50;20.63;;;7.68;;
75220;SDS011;63802;53.232;6.570;2022-10-22T00:17:16;14.25;;;7.50;;
75220;SDS011;63802;53.232;6.570;2022-10-22T00:19:41;18.92;;;8.10;;
75220;SDS011;63802;53.232;6.570;2022-10-22T00:22:07;18.27;;;8.25;;
75220;SDS011;63802;53.232;6.570;2022-10-22T00:24:34;20.20;;;7.60;;
75220;SDS011;63802;53.232;6.570;2022-10-22T00:27:01;18.60;;;7.55;;
75220;SDS011;63802;53.232;6.570;2022-10-22T00:29:27;16.55;;;7.63;;
75220;SDS011;63802;53.232;6.570;2022-10-22T00:31:53;15.35;;;7.40;;
75220;SDS011;63802;53.232;6.570;2022-10-22T00:34:19;16.83;;;7.30;;
75220;SDS011;63802;53.232;6.570;2022-10-22T00:36:46;17.50;;;8.18;;
75220;SDS011;63802;53.232;6.570;2022-10-22T00:39:13;17.45;;;7.65;;
75220;SDS011;63802;53.232;6.570;2022-10-22T00:41:43;16.50;;;7.97;;
75220;SDS011;63802;53.232;6.570;2022-10-22T00:47:14;14.93;;;7.43;;
75220;SDS011;63802;53.232;6.570;2022-10-22T00:49:40;14.80;;;6.78;;
75220;SDS011;63802;53.232;6.570;2022-10-22T00:52:07;17.17;;;7.47;;
75220;SDS011;63802;53.232;6.570;2022-10-22T00:54:33;13.93;;;6.45;;
75220;SDS011;63802;53.232;6.570;2022-10-22T00:56:58;15.88;;;6.95;;
75220;SDS011;63802;53.232;6.570;2022-10-22T00:59:25;11.27;;;5.80;;
75220;SDS011;63802;53.232;6.570;2022-10-22T01:01:51;15.50;;;7.13;;
75220;SDS011;63802;53.232;6.570;2022-10-22T01:04:18;16.23;;;7.28;;
75220;SDS011;63802;53.232;6.570;2022-10-22T01:06:44;16.38;;;7.30;;
75220;SDS011;63802;53.232;6.570;2022-10-22T01:17:28;17.02;;;8.07;;
75220;SDS011;63802;53.232;6.570;2022-10-22T01:20:04;17.85;;;8.20;;
75220;SDS011;63802;53.232;6.570;2022-10-22T01:26:15;15.43;;;7.00;;
75220;SDS011;63802;53.232;6.570;2022-10-22T01:31:34;15.25;;;7.22;;
75220;SDS011;63802;53.232;6.570;2022-10-22T01:34:03;16.30;;;6.63;;
75220;SDS011;63802;53.232;6.570;2022-10-22T01:36:32;16.00;;;6.75;;
75220;SDS011;63802;53.232;6.570;2022-10-22T01:38:59;14.25;;;6.75;;
75220;SDS011;63802;53.232;6.570;2022-10-22T01:41:28;13.88;;;6.97;;
75220;SDS011;63802;53.232;6.570;2022-10-22T01:43:54;12.65;;;6.90;;
75220;SDS011;63802;53.232;6.570;2022-10-22T01:46:20;19.08;;;7.35;;
75220;SDS011;63802;53.232;6.570;2022-10-22T01:51:58;13.82;;;6.20;;
75220;SDS011;63802;53.232;6.570;2022-10-22T01:54:36;14.68;;;6.25;;
75220;SDS011;63802;53.232;6.570;2022-10-22T01:57:09;18.65;;;7.45;;
75220;SDS011;63802;53.232;6.570;2022-10-22T02:07:51;15.38;;;6.72;;
75220;SDS011;63802;53.232;6.570;2022-10-22T02:10:20;15.60;;;7.20;;
75220;SDS011;63802;53.232;6.570;2022-10-22T02:12:49;15.38;;;6.95;;
75220;SDS011;63802;53.232;6.570;2022-10-22T02:15:18;18.40;;;7.05;;
75220;SDS011;63802;53.232;6.570;2022-10-22T02:17:46;14.85;;;7.28;;
75220;SDS011;63802;53.232;6.570;2022-10-22T02:20:13;13.52;;;6.78;;
75220;SDS011;63802;53.232;6.570;2022-10-22T02:22:47;17.35;;;6.90;;
75220;SDS011;63802;53.232;6.570;2022-10-22T02:25:13;17.48;;;7.00;;
75220;SDS011;63802;53.232;6.570;2022-10-22T02:35:12;15.75;;;7.68;;
75220;SDS011;63802;53.232;6.570;2022-10-22T02:37:41;16.70;;;7.13;;
75220;SDS011;63802;53.232;6.570;2022-10-22T02:40:07;18.67;;;6.80;;
75220;SDS011;63802;53.232;6.570;2022-10-22T02:42:33;12.68;;;6.22;;
75220;SDS011;63802;53.232;6.570;2022-10-22T02:45:00;14.93;;;7.28;;
75220;SDS011;63802;53.232;6.570;2022-10-22T02:47:28;15.05;;;6.47;;
75220;SDS011;63802;53.232;6.570;2022-10-22T02:49:54;19.48;;;7.78;;
75220;SDS011;63802;53.232;6.570;2022-10-22T02:52:19;16.95;;;7.28;;
75220;SDS011;63802;53.232;6.570;2022-10-22T02:54:46;16.38;;;6.82;;
75220;SDS011;63802;53.232;6.570;2022-10-22T02:57:11;20.13;;;6.25;;
75220;SDS011;63802;53.232;6.570;2022-10-22T02:59:37;13.55;;;6.97;;
75220;SDS011;63802;53.232;6.570;2022-10-22T03:02:03;13.95;;;6.38;;
75220;SDS011;63802;53.232;6.570;2022-10-22T03:04:28;14.38;;;5.93;;
75220;SDS011;63802;53.232;6.570;2022-10-22T03:06:54;13.20;;;6.20;;
75220;SDS011;63802;53.232;6.570;2022-10-22T03:09:20;17.60;;;6.18;;
75220;SDS011;63802;53.232;6.570;2022-10-22T03:11:45;17.65;;;6.05;;
75220;SDS011;63802;53.232;6.570;2022-10-22T03:14:11;12.73;;;5.95;;
75220;SDS011;63802;53.232;6.570;2022-10-22T03:16:37;14.70;;;6.70;;
75220;SDS011;63802;53.232;6.570;2022-10-22T03:19:02;13.65;;;6.65;;
75220;SDS011;63802;53.232;6.570;2022-10-22T03:21:33;12.82;;;5.82;;
75220;SDS011;63802;53.232;6.570;2022-10-22T03:24:03;13.90;;;6.22;;
75220;SDS011;63802;53.232;6.570;2022-10-22T03:26:33;11.10;;;6.07;;
75220;SDS011;63802;53.232;6.570;2022-10-22T03:28:59;15.73;;;6.32;;
75220;SDS011;63802;53.232;6.570;2022-10-22T03:31:26;11.65;;;6.15;;
75220;SDS011;63802;53.232;6.570;2022-10-22T03:33:51;12.73;;;6.05;;
75220;SDS011;63802;53.232;6.570;2022-10-22T03:36:16;13.18;;;7.00;;
75220;SDS011;63802;53.232;6.570;2022-10-22T03:38:42;17.30;;;6.80;;
75220;SDS011;63802;53.232;6.570;2022-10-22T03:41:08;17.35;;;6.05;;
75220;SDS011;63802;53.232;6.570;2022-10-22T03:43:34;15.32;;;6.50;;
75220;SDS011;63802;53.232;6.570;2022-10-22T03:46:01;15.50;;;5.97;;
75220;SDS011;63802;53.232;6.570;2022-10-22T03:48:26;16.23;;;6.32;;
75220;SDS011;63802;53.232;6.570;2022-10-22T03:50:51;15.15;;;6.22;;
75220;SDS011;63802;53.232;6.570;2022-10-22T03:53:17;16.17;;;6.78;;
75220;SDS011;63802;53.232;6.570;2022-10-22T03:55:42;13.18;;;6.30;;
75220;SDS011;63802;53.232;6.570;2022-10-22T03:58:07;13.00;;;5.53;;
75220;SDS011;63802;53.232;6.570;2022-10-22T04:00:33;16.52;;;6.43;;
75220;SDS011;63802;53.232;6.570;2022-10-22T04:02:59;13.25;;;6.35;;
75220;SDS011;63802;53.232;6.570;2022-10-22T04:05:25;14.02;;;6.70;;
75220;SDS011;63802;53.232;6.570;2022-10-22T04:07:51;21.40;;;6.80;;
75220;SDS011;63802;53.232;6.570;2022-10-22T04:10:17;20.20;;;7.35;;
75220;SDS011;63802;53.232;6.570;2022-10-22T04:12:45;17.42;;;6.93;;
75220;SDS011;63802;53.232;6.570;2022-10-22T04:15:14;21.00;;;7.53;;
75220;SDS011;63802;53.232;6.570;2022-10-22T04:17:39;15.73;;;7.00;;
75220;SDS011;63802;53.232;6.570;2022-10-22T04:20:05;22.35;;;7.28;;
75220;SDS011;63802;53.232;6.570;2022-10-22T04:22:32;15.40;;;7.13;;
75220;SDS011;63802;53.232;6.570;2022-10-22T04:24:59;17.70;;;6.38;;
75220;SDS011;63802;53.232;6.570;2022-10-22T04:27:24;15.18;;;6.60;;
75220;SDS011;63802;53.232;6.570;2022-10-22T04:29:49;12.93;;;6.72;;
75220;SDS011;63802;53.232;6.570;2022-10-22T04:32:16;14.68;;;6.10;;
75220;SDS011;63802;53.232;6.570;2022-10-22T04:34:41;18.88;;;6.95;;
75220;SDS011;63802;53.232;6.570;2022-10-22T04:37:07;20.85;;;7.70;;
75220;SDS011;63802;53.232;6.570;2022-10-22T04:39:32;19.70;;;7.35;;
75220;SDS011;63802;53.232;6.570;2022-10-22T04:41:58;16.30;;;6.50;;
75220;SDS011;63802;53.232;6.570;2022-10-22T04:44:23;18.23;;;7.60;;
75220;SDS011;63802;53.232;6.570;2022-10-22T04:46:49;19.38;;;7.10;;
75220;SDS011;63802;53.232;6.570;2022-10-22T04:49:14;15.38;;;7.00;;
75220;SDS011;63802;53.232;6.570;2022-10-22T04:51:40;18.75;;;7.20;;
75220;SDS011;63802;53.232;6.570;2022-10-22T04:54:05;17.67;;;6.90;;
75220;SDS011;63802;53.232;6.570;2022-10-22T04:56:31;18.10;;;7.13;;
75220;SDS011;63802;53.232;6.570;2022-10-22T04:58:59;15.43;;;7.32;;
75220;SDS011;63802;53.232;6.570;2022-10-22T05:01:27;16.10;;;6.78;;
75220;SDS011;63802;53.232;6.570;2022-10-22T05:04:01;19.80;;;7.43;;
75220;SDS011;63802;53.232;6.570;2022-10-22T05:06:30;18.20;;;7.65;;
75220;SDS011;63802;53.232;6.570;2022-10-22T05:08:57;18.73;;;7.15;;
75220;SDS011;63802;53.232;6.570;2022-10-22T05:11:28;15.00;;;6.78;;
75220;SDS011;63802;53.232;6.570;2022-10-22T05:13:57;21.17;;;7.75;;
75220;SDS011;63802;53.232;6.570;2022-10-22T05:16:24;16.40;;;6.90;;
75220;SDS011;63802;53.232;6.570;2022-10-22T05:18:50;18.77;;;7.63;;
75220;SDS011;63802;53.232;6.570;2022-10-22T05:21:16;14.98;;;6.78;;
75220;SDS011;63802;53.232;6.570;2022-10-22T05:23:43;19.00;;;7.78;;
75220;SDS011;63802;53.232;6.570;2022-10-22T05:26:11;19.17;;;7.47;;
75220;SDS011;63802;53.232;6.570;2022-10-22T05:28:37;17.35;;;7.10;;
75220;SDS011;63802;53.232;6.570;2022-10-22T05:31:04;16.08;;;6.80;;
75220;SDS011;63802;53.232;6.570;2022-10-22T05:33:31;18.77;;;7.20;;
75220;SDS011;63802;53.232;6.570;2022-10-22T05:35:57;19.15;;;7.88;;
75220;SDS011;63802;53.232;6.570;2022-10-22T05:38:24;18.88;;;7.88;;
75220;SDS011;63802;53.232;6.570;2022-10-22T05:41:06;22.65;;;7.68;;
75220;SDS011;63802;53.232;6.570;2022-10-22T05:43:33;19.85;;;8.00;;
75220;SDS011;63802;53.232;6.570;2022-10-22T05:46:18;13.68;;;7.18;;
75220;SDS011;63802;53.232;6.570;2022-10-22T05:48:51;18.83;;;8.18;;
75220;SDS011;63802;53.232;6.570;2022-10-22T05:51:19;17.23;;;6.72;;
75220;SDS011;63802;53.232;6.570;2022-10-22T05:53:45;18.02;;;8.23;;
75220;SDS011;63802;53.232;6.570;2022-10-22T05:56:15;19.73;;;7.47;;
75220;SDS011;63802;53.232;6.570;2022-10-22T05:58:41;19.80;;;7.18;;
75220;SDS011;63802;53.232;6.570;2022-10-22T06:01:16;15.52;;;6.93;;
75220;SDS011;63802;53.232;6.570;2022-10-22T06:03:46;17.88;;;7.25;;
75220;SDS011;63802;53.232;6.570;2022-10-22T06:06:27;16.90;;;6.75;;
75220;SDS011;63802;53.232;6.570;2022-10-22T06:08:54;16.15;;;7.18;;
75220;SDS011;63802;53.232;6.570;2022-10-22T06:13:49;13.55;;;6.82;;
75220;SDS011;63802;53.232;6.570;2022-10-22T06:16:15;19.25;;;7.32;;
75220;SDS011;63802;53.232;6.570;2022-10-22T06:18:41;15.70;;;7.00;;
75220;SDS011;63802;53.232;6.570;2022-10-22T06:21:07;15.30;;;7.50;;
75220;SDS011;63802;53.232;6.570;2022-10-22T06:23:37;17.15;;;7.57;;
75220;SDS011;63802;53.232;6.570;2022-10-22T06:26:04;16.38;;;6.78;;
75220;SDS011;63802;53.232;6.570;2022-10-22T06:28:30;16.95;;;7.05;;
75220;SDS011;63802;53.232;6.570;2022-10-22T06:30:57;17.70;;;8.13;;
75220;SDS011;63802;53.232;6.570;2022-10-22T06:33:23;17.65;;;8.25;;
75220;SDS011;63802;53.232;6.570;2022-10-22T06:35:49;15.80;;;7.18;;
75220;SDS011;63802;53.232;6.570;2022-10-22T06:38:14;15.05;;;6.72;;
75220;SDS011;63802;53.232;6.570;2022-10-22T06:40:39;18.75;;;7.45;;
75220;SDS011;63802;53.232;6.570;2022-10-22T06:43:08;20.52;;;7.32;;
75220;SDS011;63802;53.232;6.570;2022-10-22T06:45:34;17.45;;;7.35;;
75220;SDS011;63802;53.232;6.570;2022-10-22T06:47:59;16.25;;;7.30;;
75220;SDS011;63802;53.232;6.570;2022-10-22T06:50:25;16.90;;;7.30;;
75220;SDS011;63802;53.232;6.570;2022-10-22T06:52:51;17.25;;;7.10;;
75220;SDS011;63802;53.232;6.570;2022-10-22T06:55:16;17.48;;;7.47;;
75220;SDS011;63802;53.232;6.570;2022-10-22T06:57:42;18.65;;;6.88;;
75220;SDS011;63802;53.232;6.570;2022-10-22T07:00:07;16.23;;;6.70;;
75220;SDS011;63802;53.232;6.570;2022-10-22T07:02:33;13.90;;;6.40;;
75220;SDS011;63802;53.232;6.570;2022-10-22T07:04:59;15.75;;;6.93;;
75220;SDS011;63802;53.232;6.570;2022-10-22T07:07:24;14.75;;;7.22;;
75220;SDS011;63802;53.232;6.570;2022-10-22T07:09:49;15.77;;;6.70;;
75220;SDS011;63802;53.232;6.570;2022-10-22T07:12:15;15.73;;;6.20;;
75220;SDS011;63802;53.232;6.570;2022-10-22T07:14:41;17.30;;;6.40;;
75220;SDS011;63802;53.232;6.570;2022-10-22T07:17:06;11.43;;;5.80;;
75220;SDS011;63802;53.232;6.570;2022-10-22T07:19:31;13.43;;;6.47;;
75220;SDS011;63802;53.232;6.570;2022-10-22T07:21:57;10.70;;;6.07;;
75220;SDS011;63802;53.232;6.570;2022-10-22T07:24:23;14.32;;;6.30;;
75220;SDS011;63802;53.232;6.570;2022-10-22T07:26:48;18.80;;;6.30;;
75220;SDS011;63802;53.232;6.570;2022-10-22T07:29:13;17.50;;;6.35;;
75220;SDS011;63802;53.232;6.570;2022-10-22T07:31:40;16.73;;;6.65;;
75220;SDS011;63802;53.232;6.570;2022-10-22T07:34:06;17.10;;;6.57;;
75220;SDS011;63802;53.232;6.570;2022-10-22T07:36:31;15.60;;;6.97;;
75220;SDS011;63802;53.232;6.570;2022-10-22T07:38:57;14.38;;;5.63;;
75220;SDS011;63802;53.232;6.570;2022-10-22T07:41:25;12.48;;;5.00;;
75220;SDS011;63802;53.232;6.570;2022-10-22T07:43:51;13.85;;;5.40;;
75220;SDS011;63802;53.232;6.570;2022-10-22T07:46:17;14.90;;;5.50;;
75220;SDS011;63802;53.232;6.570;2022-10-22T07:48:42;14.40;;;5.03;;
75220;SDS011;63802;53.232;6.570;2022-10-22T07:51:08;11.98;;;5.00;;
75220;SDS011;63802;53.232;6.570;2022-10-22T07:53:33;12.68;;;5.25;;
75220;SDS011;63802;53.232;6.570;2022-10-22T07:55:59;11.40;;;5.20;;
75220;SDS011;63802;53.232;6.570;2022-10-22T07:58:24;14.85;;;5.55;;
75220;SDS011;63802;53.232;6.570;2022-10-22T08:00:50;20.40;;;5.45;;
75220;SDS011;63802;53.232;6.570;2022-10-22T08:03:19;12.25;;;4.97;;
75220;SDS011;63802;53.232;6.570;2022-10-22T08:05:44;12.73;;;4.80;;
75220;SDS011;63802;53.232;6.570;2022-10-22T08:08:10;12.90;;;4.90;;
75220;SDS011;63802;53.232;6.570;2022-10-22T08:10:37;13.15;;;5.35;;
75220;SDS011;63802;53.232;6.570;2022-10-22T08:13:03;13.48;;;4.88;;
75220;SDS011;63802;53.232;6.570;2022-10-22T08:15:29;12.95;;;5.70;;
75220;SDS011;63802;53.232;6.570;2022-10-22T08:17:55;14.63;;;5.85;;
75220;SDS011;63802;53.232;6.570;2022-10-22T08:20:21;13.23;;;5.47;;
75220;SDS011;63802;53.232;6.570;2022-10-22T08:22:47;17.52;;;5.05;;
75220;SDS011;63802;53.232;6.570;2022-10-22T08:25:12;11.85;;;5.47;;
75220;SDS011;63802;53.232;6.570;2022-10-22T08:27:42;15.93;;;5.25;;
75220;SDS011;63802;53.232;6.570;2022-10-22T08:30:08;14.83;;;5.00;;
75220;SDS011;63802;53.232;6.570;2022-10-22T08:32:34;11.07;;;4.68;;
75220;SDS011;63802;53.232;6.570;2022-10-22T08:34:59;12.98;;;5.32;;
75220;SDS011;63802;53.232;6.570;2022-10-22T08:37:25;16.15;;;5.22;;
75220;SDS011;63802;53.232;6.570;2022-10-22T08:39:50;12.15;;;5.10;;
75220;SDS011;63802;53.232;6.570;2022-10-22T08:45:21;10.40;;;4.22;;
75220;SDS011;63802;53.232;6.570;2022-10-22T08:50:48;10.93;;;4.30;;
75220;SDS011;63802;53.232;6.570;2022-10-22T08:53:18;12.50;;;5.07;;
75220;SDS011;63802;53.232;6.570;2022-10-22T08:55:46;13.85;;;4.50;;
75220;SDS011;63802;53.232;6.570;2022-10-22T09:01:21;10.48;;;4.20;;
75220;SDS011;63802;53.232;6.570;2022-10-22T09:03:56;14.40;;;4.70;;
75220;SDS011;63802;53.232;6.570;2022-10-22T09:06:30;12.35;;;4.03;;
75220;SDS011;63802;53.232;6.570;2022-10-22T09:08:58;12.23;;;3.97;;
75220;SDS011;63802;53.232;6.570;2022-10-22T09:13:50;9.63;;;3.75;;
75220;SDS011;63802;53.232;6.570;2022-10-22T09:16:29;9.40;;;3.60;;
75220;SDS011;63802;53.232;6.570;2022-10-22T09:19:02;8.55;;;3.50;;
75220;SDS011;63802;53.232;6.570;2022-10-22T09:21:40;13.90;;;3.50;;
75220;SDS011;63802;53.232;6.570;2022-10-22T09:24:35;15.95;;;4.90;;
75220;SDS011;63802;53.232;6.570;2022-10-22T09:27:16;7.85;;;3.20;;
75220;SDS011;63802;53.232;6.570;2022-10-22T09:29:44;8.25;;;3.15;;
75220;SDS011;63802;53.232;6.570;2022-10-22T09:32:11;11.25;;;3.80;;
75220;SDS011;63802;53.232;6.570;2022-10-22T09:34:37;7.28;;;2.97;;
75220;SDS011;63802;53.232;6.570;2022-10-22T09:37:05;9.48;;;2.80;;
75220;SDS011;63802;53.232;6.570;2022-10-22T09:39:43;14.48;;;3.33;;
75220;SDS011;63802;53.232;6.570;2022-10-22T09:42:10;8.95;;;3.08;;
75220;SDS011;63802;53.232;6.570;2022-10-22T09:47:05;9.82;;;3.50;;
75220;SDS011;63802;53.232;6.570;2022-10-22T09:49:49;7.90;;;3.30;;
75220;SDS011;63802;53.232;6.570;2022-10-22T09:52:31;9.32;;;3.28;;
75220;SDS011;63802;53.232;6.570;2022-10-22T09:55:00;7.97;;;3.10;;
75220;SDS011;63802;53.232;6.570;2022-10-22T09:57:27;9.85;;;3.17;;
75220;SDS011;63802;53.232;6.570;2022-10-22T09:59:53;10.95;;;3.75;;
75220;SDS011;63802;53.232;6.570;2022-10-22T10:02:22;8.82;;;3.58;;
75220;SDS011;63802;53.232;6.570;2022-10-22T10:04:52;9.75;;;3.95;;
75220;SDS011;63802;53.232;6.570;2022-10-22T10:09:45;8.43;;;3.50;;
75220;SDS011;63802;53.232;6.570;2022-10-22T10:17:50;11.82;;;3.67;;
75220;SDS011;63802;53.232;6.570;2022-10-22T10:20:32;10.02;;;3.92;;
75220;SDS011;63802;53.232;6.570;2022-10-22T10:25:54;9.57;;;3.38;;
75220;SDS011;63802;53.232;6.570;2022-10-22T10:31:30;8.43;;;4.43;;
75220;SDS011;63802;53.232;6.570;2022-10-22T10:45:16;11.82;;;4.70;;
75220;SDS011;63802;53.232;6.570;2022-10-22T10:55:21;15.35;;;4.93;;
75220;SDS011;63802;53.232;6.570;2022-10-22T11:00:59;8.57;;;4.07;;
75220;SDS011;63802;53.232;6.570;2022-10-22T11:06:11;10.27;;;4.07;;
75220;SDS011;63802;53.232;6.570;2022-10-22T11:08:42;13.45;;;4.38;;
75220;SDS011;63802;53.232;6.570;2022-10-22T11:13:51;11.32;;;4.22;;
75220;SDS011;63802;53.232;6.570;2022-10-22T11:16:41;11.40;;;4.13;;
75220;SDS011;63802;53.232;6.570;2022-10-22T11:19:15;12.73;;;4.63;;
75220;SDS011;63802;53.232;6.570;2022-10-22T11:24:42;9.05;;;4.10;;
75220;SDS011;63802;53.232;6.570;2022-10-22T11:27:36;9.35;;;3.88;;
75220;SDS011;63802;53.232;6.570;2022-10-22T11:32:41;6.00;;;3.30;;
75220;SDS011;63802;53.232;6.570;2022-10-22T11:35:12;7.05;;;3.70;;
75220;SDS011;63802;53.232;6.570;2022-10-22T11:37:41;7.35;;;3.65;;
75220;SDS011;63802;53.232;6.570;2022-10-22T11:40:14;10.20;;;3.90;;
75220;SDS011;63802;53.232;6.570;2022-10-22T11:43:25;7.25;;;3.88;;
75220;SDS011;63802;53.232;6.570;2022-10-22T11:55:49;12.35;;;4.47;;
75220;SDS011;63802;53.232;6.570;2022-10-22T11:58:31;10.70;;;4.68;;
75220;SDS011;63802;53.232;6.570;2022-10-22T12:08:41;20.55;;;5.72;;
75220;SDS011;63802;53.232;6.570;2022-10-22T12:11:19;16.30;;;5.22;;
75220;SDS011;63802;53.232;6.570;2022-10-22T12:17:06;12.15;;;4.30;;
75220;SDS011;63802;53.232;6.570;2022-10-22T12:19:44;12.13;;;4.57;;
75220;SDS011;63802;53.232;6.570;2022-10-22T12:22:15;10.60;;;4.68;;
75220;SDS011;63802;53.232;6.570;2022-10-22T12:24:45;11.43;;;4.47;;
75220;SDS011;63802;53.232;6.570;2022-10-22T12:29:48;11.80;;;4.68;;
75220;SDS011;63802;53.232;6.570;2022-10-22T12:32:19;8.88;;;4.53;;
75220;SDS011;63802;53.232;6.570;2022-10-22T12:34:45;10.90;;;4.55;;
75220;SDS011;63802;53.232;6.570;2022-10-22T12:37:13;13.82;;;5.00;;
75220;SDS011;63802;53.232;6.570;2022-10-22T12:39:39;10.88;;;4.68;;
75220;SDS011;63802;53.232;6.570;2022-10-22T12:42:06;12.65;;;5.03;;
75220;SDS011;63802;53.232;6.570;2022-10-22T12:44:36;10.02;;;4.10;;
75220;SDS011;63802;53.232;6.570;2022-10-22T12:47:02;10.75;;;4.22;;
75220;SDS011;63802;53.232;6.570;2022-10-22T12:49:32;6.47;;;3.78;;
75220;SDS011;63802;53.232;6.570;2022-10-22T12:52:02;16.05;;;4.45;;
75220;SDS011;63802;53.232;6.570;2022-10-22T12:54:31;9.27;;;4.43;;
75220;SDS011;63802;53.232;6.570;2022-10-22T12:56:59;9.57;;;4.80;;
75220;SDS011;63802;53.232;6.570;2022-10-22T12:59:25;9.35;;;3.80;;
75220;SDS011;63802;53.232;6.570;2022-10-22T13:01:53;12.63;;;4.40;;
75220;SDS011;63802;53.232;6.570;2022-10-22T13:09:40;10.57;;;3.67;;
75220;SDS011;63802;53.232;6.570;2022-10-22T13:12:26;9.60;;;3.60;;
75220;SDS011;63802;53.232;6.570;2022-10-22T13:18:00;8.63;;;2.90;;
75220;SDS011;63802;53.232;6.570;2022-10-22T13:20:27;8.10;;;2.90;;
75220;SDS011;63802;53.232;6.570;2022-10-22T13:22:55;6.72;;;2.50;;
75220;SDS011;63802;53.232;6.570;2022-10-22T13:25:26;10.10;;;3.45;;
75220;SDS011;63802;53.232;6.570;2022-10-22T13:28:01;9.82;;;2.80;;
75220;SDS011;63802;53.232;6.570;2022-10-22T13:30:49;13.38;;;3.50;;
75220;SDS011;63802;53.232;6.570;2022-10-22T13:33:20;8.70;;;2.55;;
75220;SDS011;63802;53.232;6.570;2022-10-22T13:35:50;9.80;;;2.58;;
75220;SDS011;63802;53.232;6.570;2022-10-22T13:38:19;8.25;;;2.60;;
75220;SDS011;63802;53.232;6.570;2022-10-22T13:40:46;11.90;;;3.35;;
75220;SDS011;63802;53.232;6.570;2022-10-22T13:43:12;9.07;;;2.60;;
75220;SDS011;63802;53.232;6.570;2022-10-22T13:45:37;7.03;;;2.53;;
75220;SDS011;63802;53.232;6.570;2022-10-22T13:48:04;7.57;;;2.38;;
75220;SDS011;63802;53.232;6.570;2022-10-22T13:50:29;5.57;;;2.10;;
75220;SDS011;63802;53.232;6.570;2022-10-22T13:52:55;7.13;;;2.30;;
75220;SDS011;63802;53.232;6.570;2022-10-22T13:55:23;10.80;;;2.22;;
75220;SDS011;63802;53.232;6.570;2022-10-22T13:57:56;5.55;;;1.80;;
75220;SDS011;63802;53.232;6.570;2022-10-22T14:00:27;6.65;;;1.67;;
75220;SDS011;63802;53.232;6.570;2022-10-22T14:02:53;5.03;;;1.90;;
75220;SDS011;63802;53.232;6.570;2022-10-22T14:05:21;5.13;;;1.85;;
75220;SDS011;63802;53.232;6.570;2022-10-22T14:07:47;9.63;;;2.00;;
75220;SDS011;63802;53.232;6.570;2022-10-22T14:10:14;2.40;;;1.70;;
75220;SDS011;63802;53.232;6.570;2022-10-22T14:12:41;7.53;;;1.90;;
75220;SDS011;63802;53.232;6.570;2022-10-22T14:15:08;6.40;;;2.00;;
75220;SDS011;63802;53.232;6.570;2022-10-22T14:17:35;12.45;;;2.53;;
75220;SDS011;63802;53.232;6.570;2022-10-22T14:20:02;6.95;;;2.20;;
75220;SDS011;63802;53.232;6.570;2022-10-22T14:22:27;9.65;;;2.42;;
75220;SDS011;63802;53.232;6.570;2022-10-22T14:24:53;11.15;;;2.60;;
75220;SDS011;63802;53.232;6.570;2022-10-22T14:27:19;7.57;;;2.60;;
75220;SDS011;63802;53.232;6.570;2022-10-22T14:29:44;6.55;;;2.13;;
75220;SDS011;63802;53.232;6.570;2022-10-22T14:32:16;6.70;;;2.05;;
75220;SDS011;63802;53.232;6.570;2022-10-22T14:34:45;6.80;;;1.83;;
75220;SDS011;63802;53.232;6.570;2022-10-22T14:37:15;8.07;;;1.58;;
75220;SDS011;63802;53.232;6.570;2022-10-22T14:39:43;7.35;;;2.22;;
75220;SDS011;63802;53.232;6.570;2022-10-22T14:42:11;6.88;;;1.83;;
75220;SDS011;63802;53.232;6.570;2022-10-22T14:44:38;2.67;;;1.60;;
75220;SDS011;63802;53.232;6.570;2022-10-22T14:47:04;6.13;;;1.83;;
75220;SDS011;63802;53.232;6.570;2022-10-22T14:49:29;3.70;;;1.52;;
75220;SDS011;63802;53.232;6.570;2022-10-22T14:51:55;3.25;;;1.30;;
75220;SDS011;63802;53.232;6.570;2022-10-22T14:54:20;8.13;;;1.95;;
75220;SDS011;63802;53.232;6.570;2022-10-22T14:56:45;3.38;;;1.52;;
75220;SDS011;63802;53.232;6.570;2022-10-22T14:59:11;5.35;;;1.38;;
75220;SDS011;63802;53.232;6.570;2022-10-22T15:01:36;3.70;;;1.38;;
75220;SDS011;63802;53.232;6.570;2022-10-22T15:04:03;6.00;;;2.15;;
75220;SDS011;63802;53.232;6.570;2022-10-22T15:06:28;8.60;;;3.22;;
75220;SDS011;63802;53.232;6.570;2022-10-22T15:08:54;5.63;;;1.17;;
75220;SDS011;63802;53.232;6.570;2022-10-22T15:11:19;5.32;;;1.48;;
75220;SDS011;63802;53.232;6.570;2022-10-22T15:13:46;7.30;;;1.70;;
75220;SDS011;63802;53.232;6.570;2022-10-22T15:16:11;8.15;;;1.95;;
75220;SDS011;63802;53.232;6.570;2022-10-22T15:18:38;4.93;;;1.33;;
75220;SDS011;63802;53.232;6.570;2022-10-22T15:21:05;6.40;;;1.50;;
75220;SDS011;63802;53.232;6.570;2022-10-22T15:23:32;6.32;;;1.27;;
75220;SDS011;63802;53.232;6.570;2022-10-22T15:25:58;9.65;;;1.88;;
75220;SDS011;63802;53.232;6.570;2022-10-22T15:28:23;5.82;;;1.42;;
75220;SDS011;63802;53.232;6.570;2022-10-22T15:30:57;7.57;;;1.75;;
75220;SDS011;63802;53.232;6.570;2022-10-22T15:33:24;4.70;;;1.23;;
75220;SDS011;63802;53.232;6.570;2022-10-22T15:35:50;9.23;;;1.70;;
75220;SDS011;63802;53.232;6.570;2022-10-22T15:38:16;9.25;;;1.70;;
75220;SDS011;63802;53.232;6.570;2022-10-22T15:40:42;4.53;;;1.35;;
75220;SDS011;63802;53.232;6.570;2022-10-22T15:43:07;7.13;;;1.75;;
75220;SDS011;63802;53.232;6.570;2022-10-22T15:45:33;9.45;;;1.80;;
75220;SDS011;63802;53.232;6.570;2022-10-22T15:47:58;9.15;;;1.95;;
75220;SDS011;63802;53.232;6.570;2022-10-22T15:50:24;8.45;;;1.77;;
75220;SDS011;63802;53.232;6.570;2022-10-22T15:52:49;7.35;;;1.70;;
75220;SDS011;63802;53.232;6.570;2022-10-22T15:55:14;8.95;;;2.00;;
75220;SDS011;63802;53.232;6.570;2022-10-22T15:57:40;11.90;;;1.77;;
75220;SDS011;63802;53.232;6.570;2022-10-22T16:00:05;4.10;;;1.30;;
75220;SDS011;63802;53.232;6.570;2022-10-22T16:02:32;8.70;;;2.95;;
75220;SDS011;63802;53.232;6.570;2022-10-22T16:04:58;9.77;;;1.65;;
75220;SDS011;63802;53.232;6.570;2022-10-22T16:07:24;9.35;;;1.42;;
75220;SDS011;63802;53.232;6.570;2022-10-22T16:09:53;10.25;;;2.20;;
75220;SDS011;63802;53.232;6.570;2022-10-22T16:12:19;9.98;;;2.20;;
75220;SDS011;63802;53.232;6.570;2022-10-22T16:14:45;12.30;;;1.98;;
75220;SDS011;63802;53.232;6.570;2022-10-22T16:17:10;11.32;;;2.95;;
75220;SDS011;63802;53.232;6.570;2022-10-22T16:19:35;7.68;;;1.73;;
75220;SDS011;63802;53.232;6.570;2022-10-22T16:22:01;13.75;;;2.22;;
75220;SDS011;63802;53.232;6.570;2022-10-22T16:24:27;12.93;;;2.35;;
75220;SDS011;63802;53.232;6.570;2022-10-22T16:26:52;13.98;;;3.30;;
75220;SDS011;63802;53.232;6.570;2022-10-22T16:29:18;8.70;;;2.08;;
75220;SDS011;63802;53.232;6.570;2022-10-22T16:31:43;12.20;;;2.25;;
75220;SDS011;63802;53.232;6.570;2022-10-22T16:34:09;13.63;;;2.60;;
75220;SDS011;63802;53.232;6.570;2022-10-22T16:36:36;12.85;;;2.55;;
75220;SDS011;63802;53.232;6.570;2022-10-22T16:39:02;12.95;;;2.40;;
75220;SDS011;63802;53.232;6.570;2022-10-22T16:41:29;9.68;;;2.42;;
75220;SDS011;63802;53.232;6.570;2022-10-22T16:46:26;13.52;;;2.60;;
75220;SDS011;63802;53.232;6.570;2022-10-22T16:48:52;11.07;;;2.33;;
75220;SDS011;63802;53.232;6.570;2022-10-22T16:51:18;15.57;;;2.20;;
75220;SDS011;63802;53.232;6.570;2022-10-22T16:53:46;11.52;;;2.45;;
75220;SDS011;63802;53.232;6.570;2022-10-22T16:56:13;7.60;;;2.00;;